createdAt,value
2022-11-25T00:01:29.310Z,68.14
2022-11-25T00:03:57.019Z,68.13
2022-11-25T00:06:26.190Z,67.92
2022-11-25T00:08:58.260Z,68.35
2022-11-25T00:11:25.151Z,68.23
2022-11-25T00:13:51.681Z,68.43
2022-11-25T00:16:20.734Z,68.51
2022-11-25T00:18:49.308Z,68.35
2022-11-25T00:21:18.341Z,68.25
2022-11-25T00:23:49.914Z,68.23
2022-11-25T00:26:16.779Z,68.34
2022-11-25T00:28:45.458Z,68.60
2022-11-25T00:31:17.167Z,68.44
2022-11-25T00:33:44.319Z,68.50
2022-11-25T00:36:20.746Z,68.39
2022-11-25T00:38:47.232Z,68.56
2022-11-25T00:41:32.814Z,68.80
2022-11-25T00:44:17.522Z,68.78
2022-11-25T00:46:43.883Z,68.88
2022-11-25T00:49:10.305Z,69.26
2022-11-25T00:51:36.628Z,68.93
2022-11-25T00:54:03.064Z,69.00
2022-11-25T00:56:30.269Z,69.27
2022-11-25T00:58:56.684Z,69.24
2022-11-25T01:01:23.159Z,69.00
2022-11-25T01:03:51.094Z,68.65
2022-11-25T01:06:17.644Z,68.75
2022-11-25T01:08:44.121Z,68.48
2022-11-25T01:11:12.936Z,68.22
2022-11-25T01:13:39.663Z,67.93
2022-11-25T01:16:07.588Z,68.32
2022-11-25T01:18:34.755Z,67.88
2022-11-25T01:21:16.402Z,68.04
2022-11-25T01:23:43.365Z,67.63
2022-11-25T01:26:15.596Z,67.84
2022-11-25T01:28:42.095Z,67.65
2022-11-25T01:31:17.759Z,67.31
2022-11-25T01:33:45.821Z,67.56
2022-11-25T01:36:15.431Z,67.59
2022-11-25T01:38:42.762Z,67.41
2022-11-25T01:41:13.109Z,67.29
2022-11-25T01:43:40.429Z,67.28
2022-11-25T01:46:25.198Z,66.78
2022-11-25T01:48:51.488Z,66.66
2022-11-25T01:51:34.194Z,66.85
2022-11-25T01:54:03.412Z,66.57
2022-11-25T01:56:36.000Z,66.45
2022-11-25T01:59:02.869Z,66.54
2022-11-25T02:01:29.324Z,66.63
2022-11-25T02:03:57.395Z,66.40
2022-11-25T02:06:27.960Z,66.30
2022-11-25T02:08:58.668Z,66.69
2022-11-25T02:11:28.278Z,66.48
2022-11-25T02:13:54.870Z,66.44
2022-11-25T02:16:21.340Z,66.27
2022-11-25T02:18:49.603Z,66.77
2022-11-25T02:21:22.977Z,67.13
2022-11-25T02:23:57.353Z,66.84
2022-11-25T02:26:23.862Z,66.56
2022-11-25T02:28:50.371Z,66.81
2022-11-25T02:31:21.700Z,67.07
2022-11-25T02:33:48.534Z,66.85
2022-11-25T02:36:18.766Z,66.87
2022-11-25T02:38:53.950Z,66.42
2022-11-25T02:41:34.669Z,66.36
2022-11-25T02:44:01.849Z,66.44
2022-11-25T02:46:29.202Z,66.22
2022-11-25T02:49:08.867Z,66.18
2022-11-25T02:51:36.892Z,66.56
2022-11-25T02:54:03.335Z,66.69
2022-11-25T02:56:32.897Z,66.54
2022-11-25T02:59:00.087Z,66.44
2022-11-25T03:01:27.037Z,66.52
2022-11-25T03:03:53.493Z,66.54
2022-11-25T03:06:19.918Z,66.29
2022-11-25T03:08:46.219Z,66.10
2022-11-25T03:11:12.579Z,66.12
2022-11-25T03:13:39.392Z,66.17
2022-11-25T03:16:06.094Z,66.07
2022-11-25T03:18:32.485Z,66.12
2022-11-25T03:20:59.011Z,65.80
2022-11-25T03:23:25.765Z,65.74
2022-11-25T03:25:52.231Z,65.97
2022-11-25T03:28:18.564Z,65.99
2022-11-25T03:30:44.912Z,66.09
2022-11-25T03:33:11.287Z,65.89
2022-11-25T03:35:37.573Z,65.95
2022-11-25T03:38:04.079Z,65.42
2022-11-25T03:40:30.374Z,65.53
2022-11-25T03:42:56.752Z,65.54
2022-11-25T03:45:23.120Z,65.69
2022-11-25T03:47:49.460Z,65.56
2022-11-25T03:50:16.484Z,65.58
2022-11-25T03:52:42.860Z,65.53
2022-11-25T03:55:12.460Z,65.62
2022-11-25T03:57:38.935Z,65.84
2022-11-25T04:00:06.266Z,65.47
2022-11-25T04:02:32.780Z,65.46
2022-11-25T04:04:59.231Z,65.26
2022-11-25T04:07:25.841Z,65.40
2022-11-25T04:09:52.164Z,65.05
2022-11-25T04:12:36.897Z,65.24
2022-11-25T04:15:04.042Z,65.23
2022-11-25T04:17:30.456Z,64.91
2022-11-25T04:19:56.802Z,65.30
2022-11-25T04:22:23.107Z,65.13
2022-11-25T04:24:49.445Z,65.04
2022-11-25T04:27:15.799Z,65.33
2022-11-25T04:29:42.137Z,65.23
2022-11-25T04:32:08.540Z,65.30
2022-11-25T04:34:35.158Z,65.48
2022-11-25T04:37:01.624Z,65.31
2022-11-25T04:39:27.971Z,65.17
2022-11-25T04:42:17.166Z,65.36
2022-11-25T04:44:55.900Z,65.38
2022-11-25T04:47:30.450Z,65.47
2022-11-25T04:49:56.832Z,65.45
2022-11-25T04:52:23.302Z,65.13
2022-11-25T04:54:49.674Z,65.50
2022-11-25T04:57:16.426Z,65.72
2022-11-25T04:59:43.779Z,65.67
2022-11-25T05:02:27.985Z,65.84
2022-11-25T05:04:56.562Z,65.75
2022-11-25T05:07:25.182Z,66.01
2022-11-25T05:09:51.650Z,66.10
2022-11-25T05:12:21.479Z,66.12
2022-11-25T05:14:48.937Z,66.30
2022-11-25T05:17:22.327Z,66.18
2022-11-25T05:19:49.966Z,66.35
2022-11-25T05:22:19.353Z,66.21
2022-11-25T05:24:45.949Z,66.23
2022-11-25T05:27:12.337Z,65.95
2022-11-25T05:29:38.914Z,66.38
2022-11-25T05:32:06.289Z,65.96
2022-11-25T05:34:32.630Z,65.81
2022-11-25T05:36:59.208Z,66.20
2022-11-25T05:39:25.947Z,66.16
2022-11-25T05:41:52.254Z,66.05
2022-11-25T05:44:22.852Z,66.21
2022-11-25T05:46:49.639Z,66.36
2022-11-25T05:49:16.540Z,66.18
2022-11-25T05:51:42.966Z,66.08
2022-11-25T05:54:09.311Z,66.15
2022-11-25T05:56:36.179Z,66.02
2022-11-25T05:59:03.725Z,65.85
2022-11-25T06:01:30.421Z,65.87
2022-11-25T06:04:00.863Z,65.94
2022-11-25T06:06:27.633Z,66.09
2022-11-25T06:08:53.996Z,65.95
2022-11-25T06:11:20.401Z,66.08
2022-11-25T06:13:46.859Z,65.99
2022-11-25T06:16:16.491Z,66.15
2022-11-25T06:18:43.257Z,66.21
2022-11-25T06:21:10.724Z,66.00
2022-11-25T06:23:38.056Z,66.30
2022-11-25T06:26:13.868Z,66.31
2022-11-25T06:28:40.125Z,66.43
2022-11-25T06:31:08.901Z,66.11
2022-11-25T06:33:36.198Z,66.19
2022-11-25T06:36:05.016Z,66.46
2022-11-25T06:38:31.437Z,66.43
2022-11-25T06:41:02.296Z,66.33
2022-11-25T06:43:29.485Z,66.43
2022-11-25T06:46:08.819Z,66.48
2022-11-25T06:48:36.156Z,66.45
2022-11-25T06:51:05.621Z,66.79
2022-11-25T06:53:33.061Z,66.39
2022-11-25T06:56:05.905Z,66.46
2022-11-25T06:58:36.556Z,66.68
2022-11-25T07:01:20.802Z,66.54
2022-11-25T07:03:49.300Z,66.64
2022-11-25T07:06:16.945Z,66.79
2022-11-25T07:08:44.279Z,66.67
2022-11-25T07:11:16.520Z,66.28
2022-11-25T07:13:43.389Z,66.67
2022-11-25T07:16:11.473Z,66.82
2022-11-25T07:18:39.497Z,66.81
2022-11-25T07:21:08.119Z,66.74
2022-11-25T07:23:36.152Z,66.90
2022-11-25T07:26:14.174Z,66.68
2022-11-25T07:28:41.718Z,66.73
2022-11-25T07:31:31.324Z,66.66
2022-11-25T07:34:04.432Z,66.47
2022-11-25T07:36:32.655Z,66.82
2022-11-25T07:39:01.213Z,66.75
2022-11-25T07:41:28.814Z,66.81
2022-11-25T07:44:00.820Z,66.87
2022-11-25T07:46:34.141Z,66.88
2022-11-25T07:49:04.849Z,66.65
2022-11-25T07:51:37.408Z,66.95
2022-11-25T07:54:06.299Z,67.18
2022-11-25T07:56:35.538Z,66.87
2022-11-25T07:59:02.372Z,67.21
2022-11-25T08:01:28.850Z,67.16
2022-11-25T08:04:08.675Z,67.05
2022-11-25T08:06:39.465Z,67.00
2022-11-25T08:09:06.618Z,67.03
2022-11-25T08:11:33.286Z,67.28
2022-11-25T08:13:59.838Z,67.43
2022-11-25T08:16:28.431Z,67.35
2022-11-25T08:18:55.968Z,67.30
2022-11-25T08:21:22.581Z,67.21
2022-11-25T08:23:49.271Z,67.30
2022-11-25T08:26:37.752Z,67.22
2022-11-25T08:29:07.385Z,67.09
2022-11-25T08:31:36.841Z,67.01
2022-11-25T08:34:05.919Z,67.06
2022-11-25T08:36:34.001Z,67.03
2022-11-25T08:39:12.619Z,67.12
2022-11-25T08:41:49.302Z,66.92
2022-11-25T08:44:15.683Z,67.15
2022-11-25T08:46:42.230Z,66.94
2022-11-25T08:49:09.771Z,67.00
2022-11-25T08:51:37.869Z,67.11
2022-11-25T08:54:06.304Z,67.07
2022-11-25T08:56:32.849Z,67.19
2022-11-25T08:59:00.045Z,67.15
2022-11-25T09:01:38.507Z,67.37
2022-11-25T09:04:05.003Z,67.38
2022-11-25T09:06:31.352Z,67.36
2022-11-25T09:08:58.789Z,67.30
2022-11-25T09:11:31.391Z,67.14
2022-11-25T09:13:57.852Z,67.20
2022-11-25T09:16:26.644Z,67.44
2022-11-25T09:18:56.055Z,67.51
2022-11-25T09:21:24.671Z,67.35
2022-11-25T09:23:52.163Z,67.44
2022-11-25T09:26:24.942Z,67.38
2022-11-25T09:29:03.569Z,67.42
2022-11-25T09:31:29.985Z,67.62
2022-11-25T09:33:59.442Z,67.71
2022-11-25T09:36:25.887Z,67.77
2022-11-25T09:38:52.554Z,68.06
2022-11-25T09:41:51.973Z,68.08
2022-11-25T09:44:39.722Z,67.98
2022-11-25T09:47:20.208Z,68.05
2022-11-25T09:50:03.214Z,67.99
2022-11-25T09:52:42.702Z,67.98
2022-11-25T09:55:17.166Z,67.92
2022-11-25T09:57:59.463Z,67.99
2022-11-25T10:00:36.222Z,67.87
2022-11-25T10:03:40.303Z,67.98
2022-11-25T10:06:26.342Z,67.80
2022-11-25T10:08:57.802Z,67.88
2022-11-25T10:12:11.324Z,67.92
2022-11-25T10:14:53.839Z,67.75
2022-11-25T10:17:35.003Z,67.72
2022-11-25T10:20:12.915Z,67.62
2022-11-25T10:22:55.793Z,67.53
2022-11-25T10:25:25.407Z,67.46
2022-11-25T10:27:57.785Z,67.56
2022-11-25T10:30:48.850Z,67.38
2022-11-25T10:33:33.217Z,67.60
2022-11-25T10:36:21.638Z,67.54
2022-11-25T10:39:27.924Z,67.61
2022-11-25T10:41:59.470Z,67.52
2022-11-25T10:44:29.679Z,67.62
2022-11-25T10:47:20.408Z,67.63
2022-11-25T10:50:24.443Z,67.49
2022-11-25T10:53:12.991Z,67.21
2022-11-25T10:55:47.873Z,67.04
2022-11-25T10:58:27.853Z,66.92
2022-11-25T11:01:19.872Z,67.02
2022-11-25T11:03:52.873Z,66.67
2022-11-25T11:06:36.475Z,66.39
2022-11-25T11:09:04.030Z,66.32
2022-11-25T11:11:30.769Z,66.24
2022-11-25T11:14:29.829Z,66.37
2022-11-25T11:16:57.636Z,66.22
2022-11-25T11:19:31.099Z,66.20
2022-11-25T11:22:15.528Z,66.08
2022-11-25T11:24:42.530Z,65.31
2022-11-25T11:27:23.933Z,65.40
2022-11-25T11:30:08.611Z,64.95
2022-11-25T11:32:35.110Z,64.43
2022-11-25T11:35:04.119Z,64.23
2022-11-25T11:37:42.812Z,64.56
2022-11-25T11:40:15.220Z,64.52
2022-11-25T11:43:06.046Z,64.27
2022-11-25T11:46:00.692Z,63.88
2022-11-25T11:48:38.876Z,63.29
2022-11-25T11:51:14.026Z,62.99
2022-11-25T11:53:58.752Z,63.07
2022-11-25T11:56:37.574Z,62.95
2022-11-25T11:59:32.349Z,62.89
2022-11-25T12:02:01.657Z,62.32
2022-11-25T12:04:36.417Z,62.73
2022-11-25T12:07:12.922Z,62.88
2022-11-25T12:09:50.763Z,62.87
2022-11-25T12:12:19.479Z,62.20
2022-11-25T12:14:50.979Z,61.96
2022-11-25T12:17:23.245Z,61.76
2022-11-25T12:19:56.759Z,61.83
2022-11-25T12:22:43.437Z,61.32
2022-11-25T12:25:35.437Z,61.43
2022-11-25T12:28:08.960Z,60.97
2022-11-25T12:30:44.810Z,60.91
2022-11-25T12:33:25.891Z,61.17
2022-11-25T12:36:05.786Z,60.98
2022-11-25T12:38:46.120Z,60.39
2022-11-25T12:41:26.805Z,60.33
2022-11-25T12:44:13.153Z,60.10
2022-11-25T12:46:48.899Z,60.05
2022-11-25T12:49:40.803Z,60.36
2022-11-25T12:52:32.991Z,60.14
2022-11-25T12:55:18.820Z,59.97
2022-11-25T12:57:51.218Z,59.63
2022-11-25T13:03:33.582Z,59.49
2022-11-25T13:06:28.820Z,59.45
2022-11-25T13:09:19.488Z,59.40
2022-11-25T13:12:02.823Z,59.49
2022-11-25T13:14:57.829Z,59.09
2022-11-25T13:17:25.827Z,59.05
2022-11-25T13:20:29.307Z,59.30
2022-11-25T13:23:05.754Z,59.29
2022-11-25T13:25:32.739Z,59.37
2022-11-25T13:28:01.346Z,59.68
2022-11-25T13:30:38.086Z,60.17
2022-11-25T13:33:13.320Z,60.08
2022-11-25T13:35:42.884Z,59.80
2022-11-25T13:38:34.205Z,59.71
2022-11-25T13:41:25.246Z,59.61
2022-11-25T13:44:01.978Z,59.34
2022-11-25T13:46:39.743Z,59.35
2022-11-25T13:49:21.117Z,59.13
2022-11-25T13:51:53.495Z,59.23
2022-11-25T13:54:24.260Z,59.00
2022-11-25T13:57:17.875Z,58.94
2022-11-25T13:59:44.112Z,58.79
2022-11-25T14:02:28.901Z,59.01
2022-11-25T14:05:04.851Z,58.87
2022-11-25T14:07:40.076Z,59.12
2022-11-25T14:10:47.725Z,59.05
2022-11-25T14:13:28.942Z,58.98
2022-11-25T14:16:25.406Z,59.22
2022-11-25T14:19:49.958Z,58.89
2022-11-25T14:22:31.128Z,59.07
2022-11-25T14:25:16.642Z,59.23
2022-11-25T14:27:48.258Z,59.44
2022-11-25T14:30:16.323Z,59.36
2022-11-25T14:33:08.156Z,59.24
2022-11-25T14:35:45.619Z,59.46
2022-11-25T14:38:19.506Z,59.46
2022-11-25T14:41:03.614Z,59.39
2022-11-25T14:43:34.648Z,59.34
2022-11-25T14:46:21.192Z,59.74
2022-11-25T14:49:07.638Z,59.69
2022-11-25T14:51:41.319Z,59.55
2022-11-25T14:54:08.965Z,59.58
2022-11-25T14:56:37.167Z,59.70
2022-11-25T14:59:04.177Z,59.67
2022-11-25T15:01:33.330Z,59.60
2022-11-25T15:04:07.269Z,59.71
2022-11-25T15:06:36.362Z,59.64
2022-11-25T15:09:03.985Z,59.42
2022-11-25T15:11:33.757Z,59.54
2022-11-25T15:14:05.538Z,59.27
2022-11-25T15:16:39.457Z,59.43
2022-11-25T15:19:15.659Z,59.56
2022-11-25T15:22:14.643Z,59.76
2022-11-25T15:24:48.934Z,59.99
2022-11-25T15:27:25.318Z,59.93
2022-11-25T15:29:53.653Z,59.88
2022-11-25T15:32:25.282Z,60.12
2022-11-25T15:34:53.494Z,60.19
2022-11-25T15:37:19.934Z,59.80
2022-11-25T15:39:46.945Z,60.12
2022-11-25T15:42:19.737Z,60.23
2022-11-25T15:45:11.368Z,60.29
2022-11-25T15:47:37.837Z,60.32
2022-11-25T15:50:17.566Z,60.43
2022-11-25T15:52:48.329Z,60.44
2022-11-25T15:55:34.858Z,60.75
2022-11-25T15:58:23.507Z,60.91
2022-11-25T16:01:18.016Z,60.99
2022-11-25T16:03:45.809Z,61.30
2022-11-25T16:06:26.714Z,61.27
2022-11-25T16:09:01.285Z,61.48
2022-11-25T16:11:33.655Z,61.53
2022-11-25T16:14:26.781Z,61.43
2022-11-25T16:17:05.918Z,61.51
2022-11-25T16:19:38.734Z,61.62
2022-11-25T16:22:05.733Z,61.59
2022-11-25T16:24:41.578Z,61.51
2022-11-25T16:27:23.689Z,61.50
2022-11-25T16:29:53.394Z,61.59
2022-11-25T16:32:28.536Z,61.60
2022-11-25T16:34:56.781Z,61.22
2022-11-25T16:37:24.126Z,61.61
2022-11-25T16:39:50.494Z,61.84
2022-11-25T16:42:21.526Z,61.59
2022-11-25T16:44:50.452Z,61.51
2022-11-25T16:47:18.699Z,61.47
2022-11-25T16:49:46.352Z,61.39
2022-11-25T16:52:13.318Z,61.50
2022-11-25T16:54:39.726Z,61.28
2022-11-25T16:57:07.583Z,61.47
2022-11-25T16:59:38.026Z,61.24
2022-11-25T17:02:18.147Z,61.50
2022-11-25T17:04:45.203Z,61.51
2022-11-25T17:10:00.077Z,61.43
2022-11-25T17:12:30.777Z,61.45
2022-11-25T17:14:59.770Z,61.62
2022-11-25T17:17:27.169Z,61.50
2022-11-25T17:19:53.890Z,61.71
2022-11-25T17:22:23.285Z,61.84
2022-11-25T17:24:49.746Z,62.06
2022-11-25T17:27:21.830Z,62.21
2022-11-25T17:29:48.945Z,62.56
2022-11-25T17:32:16.470Z,62.87
2022-11-25T17:34:42.921Z,62.99
2022-11-25T17:37:20.735Z,63.21
2022-11-25T17:39:47.097Z,63.44
2022-11-25T17:42:15.913Z,63.46
2022-11-25T17:44:45.885Z,63.72
2022-11-25T17:47:16.895Z,63.71
2022-11-25T17:49:43.229Z,63.71
2022-11-25T17:52:09.585Z,63.42
2022-11-25T17:54:36.318Z,63.63
2022-11-25T17:57:04.782Z,63.71
2022-11-25T17:59:33.535Z,63.58
2022-11-25T18:02:00.089Z,63.85
2022-11-25T18:04:30.213Z,63.91
2022-11-25T18:06:56.602Z,63.96
2022-11-25T18:09:23.458Z,64.20
2022-11-25T18:11:53.187Z,64.02
2022-11-25T18:14:28.264Z,64.04
2022-11-25T18:16:55.344Z,63.69
2022-11-25T18:19:22.194Z,63.67
2022-11-25T18:21:48.542Z,63.75
2022-11-25T18:24:14.876Z,63.49
2022-11-25T18:26:47.154Z,63.32
2022-11-25T18:29:16.302Z,63.12
2022-11-25T18:31:44.632Z,63.12
2022-11-25T18:34:17.910Z,63.20
2022-11-25T18:36:44.802Z,63.38
2022-11-25T18:39:12.006Z,63.46
2022-11-25T18:41:40.311Z,63.56
2022-11-25T18:44:15.547Z,63.97
2022-11-25T18:46:41.902Z,64.01
2022-11-25T18:49:12.965Z,63.59
2022-11-25T18:51:40.152Z,64.01
2022-11-25T18:54:07.984Z,63.78
2022-11-25T18:56:36.045Z,63.81
2022-11-25T18:59:03.388Z,63.86
2022-11-25T19:01:29.947Z,63.93
2022-11-25T19:03:56.706Z,64.20
2022-11-25T19:06:23.469Z,64.37
2022-11-25T19:08:52.412Z,64.40
2022-11-25T19:11:30.030Z,64.25
2022-11-25T19:14:02.726Z,64.32
2022-11-25T19:16:29.155Z,64.18
2022-11-25T19:18:55.621Z,63.79
2022-11-25T19:21:21.956Z,63.81
2022-11-25T19:23:48.801Z,64.12
2022-11-25T19:26:19.893Z,64.20
2022-11-25T19:28:49.610Z,63.91
2022-11-25T19:31:18.659Z,63.88
2022-11-25T19:33:48.764Z,63.63
2022-11-25T19:36:24.374Z,63.28
2022-11-25T19:38:51.583Z,63.33
2022-11-25T19:41:18.296Z,63.87
2022-11-25T19:43:44.671Z,63.81
2022-11-25T19:46:33.055Z,63.70
2022-11-25T19:49:04.829Z,64.01
2022-11-25T19:51:34.264Z,63.96
2022-11-25T19:54:00.580Z,64.27
2022-11-25T19:56:27.212Z,64.36
2022-11-25T19:58:54.632Z,64.41
2022-11-25T20:01:25.423Z,64.37
2022-11-25T20:03:52.000Z,65.40
2022-11-25T20:06:19.466Z,65.88
2022-11-25T20:08:46.289Z,65.46
2022-11-25T20:11:13.901Z,65.15
2022-11-25T20:13:41.265Z,65.14
2022-11-25T20:16:26.579Z,64.81
2022-11-25T20:18:53.467Z,64.90
2022-11-25T20:21:36.414Z,64.78
2022-11-25T20:24:05.261Z,64.66
2022-11-25T20:26:35.987Z,64.99
2022-11-25T20:29:10.433Z,64.47
2022-11-25T20:31:36.813Z,64.21
2022-11-25T20:34:03.224Z,64.67
2022-11-25T20:36:32.060Z,64.48
2022-11-25T20:39:00.129Z,64.59
2022-11-25T20:41:28.309Z,64.34
2022-11-25T20:43:56.200Z,64.80
2022-11-25T20:46:26.894Z,64.58
2022-11-25T20:48:55.799Z,64.91
2022-11-25T20:51:23.798Z,64.67
2022-11-25T20:53:53.085Z,64.92
2022-11-25T20:56:21.835Z,64.73
2022-11-25T20:58:48.475Z,64.91
2022-11-25T21:01:15.482Z,65.06
2022-11-25T21:03:42.591Z,65.17
2022-11-25T21:06:27.586Z,65.16
2022-11-25T21:08:55.603Z,65.48
2022-11-25T21:11:22.801Z,65.02
2022-11-25T21:13:50.171Z,65.06
2022-11-25T21:16:16.546Z,65.35
2022-11-25T21:18:43.177Z,65.57
2022-11-25T21:21:18.696Z,65.11
2022-11-25T21:23:46.995Z,65.50
2022-11-25T21:26:26.520Z,65.16
2022-11-25T21:28:54.483Z,65.38
2022-11-25T21:31:24.390Z,65.44
2022-11-25T21:33:56.334Z,65.40
2022-11-25T21:36:27.440Z,65.59
2022-11-25T21:39:23.272Z,65.34
2022-11-25T21:41:49.878Z,65.66
2022-11-25T21:44:25.679Z,65.65
2022-11-25T21:46:53.663Z,65.57
2022-11-25T21:49:20.329Z,65.49
2022-11-25T21:51:46.727Z,65.43
2022-11-25T21:54:13.039Z,65.29
2022-11-25T21:56:39.938Z,65.44
2022-11-25T21:59:07.960Z,65.61
2022-11-25T22:01:34.346Z,65.46
2022-11-25T22:04:00.708Z,65.46
2022-11-25T22:06:29.165Z,65.48
2022-11-25T22:08:56.618Z,65.42
2022-11-25T22:11:34.078Z,65.30
2022-11-25T22:14:04.621Z,65.38
2022-11-25T22:16:34.434Z,65.61
2022-11-25T22:19:01.315Z,65.63
2022-11-25T22:21:27.676Z,65.76
2022-11-25T22:23:53.990Z,65.70
2022-11-25T22:26:29.866Z,65.79
2022-11-25T22:28:57.093Z,65.77
2022-11-25T22:31:24.515Z,65.63
2022-11-25T22:33:51.193Z,65.97
2022-11-25T22:36:39.852Z,65.68
2022-11-25T22:39:14.829Z,65.45
2022-11-25T22:41:44.485Z,65.73
2022-11-25T22:44:20.775Z,65.73
2022-11-25T22:46:48.418Z,65.74
2022-11-25T22:49:33.329Z,65.95
2022-11-25T22:52:00.180Z,66.15
2022-11-25T22:54:26.530Z,66.50
2022-11-25T22:56:53.062Z,66.66
2022-11-25T22:59:19.446Z,66.68
2022-11-25T23:01:46.278Z,67.09
2022-11-25T23:04:16.948Z,66.87
2022-11-25T23:06:44.063Z,66.53
2022-11-25T23:09:15.342Z,66.90
2022-11-25T23:11:42.097Z,66.68
2022-11-25T23:14:08.754Z,67.12
2022-11-25T23:16:35.119Z,66.87
2022-11-25T23:19:04.309Z,67.03
2022-11-25T23:21:31.045Z,67.10
2022-11-25T23:23:57.536Z,66.66
2022-11-25T23:26:23.991Z,66.90
2022-11-25T23:28:50.343Z,67.25
2022-11-25T23:31:16.919Z,67.22
2022-11-25T23:33:45.997Z,67.36
2022-11-25T23:36:17.483Z,67.23
2022-11-25T23:38:56.264Z,67.21
2022-11-25T23:41:30.927Z,67.75
2022-11-25T23:44:01.931Z,67.90
2022-11-25T23:46:34.145Z,67.38
2022-11-25T23:49:02.521Z,67.49
2022-11-25T23:51:30.148Z,67.89
2022-11-25T23:53:58.100Z,68.04
2022-11-25T23:56:26.837Z,67.96
2022-11-25T23:58:53.184Z,67.95
